createdAt,value
2019-03-16T00:01:16.064Z,12.07
2019-03-16T00:03:42.343Z,11.33
2019-03-16T00:06:08.650Z,11.90
2019-03-16T00:08:34.955Z,13.80
2019-03-16T00:11:01.263Z,18.00
2019-03-16T00:13:28.407Z,10.90
2019-03-16T00:15:54.680Z,12.27
2019-03-16T00:18:21.022Z,7.77
2019-03-16T00:20:47.344Z,12.40
2019-03-16T00:23:13.648Z,12.30
2019-03-16T00:25:39.942Z,14.37
2019-03-16T00:28:06.223Z,8.43
2019-03-16T00:30:32.527Z,12.13
2019-03-16T00:32:58.816Z,13.47
2019-03-16T00:35:25.136Z,12.00
2019-03-16T00:37:51.612Z,9.10
2019-03-16T00:40:18.091Z,14.70
2019-03-16T00:42:44.386Z,9.27
2019-03-16T00:45:11.164Z,9.73
2019-03-16T00:47:37.470Z,9.60
2019-03-16T00:50:09.087Z,10.27
2019-03-16T00:52:35.429Z,11.30
2019-03-16T00:55:01.777Z,7.37
2019-03-16T00:57:28.052Z,8.40
2019-03-16T00:59:54.337Z,9.57
2019-03-16T01:02:26.919Z,14.93
2019-03-16T01:04:48.726Z,13.40
2019-03-16T01:07:15.053Z,7.27
2019-03-16T01:09:43.641Z,11.40
2019-03-16T01:12:09.413Z,10.97
2019-03-16T01:14:35.722Z,6.13
2019-03-16T01:17:02.028Z,9.03
2019-03-16T01:19:28.319Z,6.80
2019-03-16T01:21:54.659Z,7.43
2019-03-16T01:24:20.956Z,9.87
2019-03-16T01:26:47.243Z,7.07
2019-03-16T01:29:13.535Z,6.37
2019-03-16T01:31:39.857Z,8.77
2019-03-16T01:34:06.160Z,8.90
2019-03-16T01:36:32.545Z,11.70
2019-03-16T01:38:58.846Z,10.47
2019-03-16T01:41:25.172Z,10.23
2019-03-16T01:43:51.457Z,9.07
2019-03-16T01:46:17.861Z,10.03
2019-03-16T01:48:44.165Z,6.07
2019-03-16T01:51:10.453Z,6.77
2019-03-16T01:53:36.769Z,10.20
2019-03-16T01:56:03.060Z,9.00
2019-03-16T01:58:29.354Z,8.30
2019-03-16T02:00:55.653Z,11.60
2019-03-16T02:03:21.917Z,8.73
2019-03-16T02:05:48.211Z,8.63
2019-03-16T02:08:14.520Z,7.23
2019-03-16T02:10:40.776Z,13.60
2019-03-16T02:13:07.069Z,8.77
2019-03-16T02:15:33.330Z,9.40
2019-03-16T02:17:59.639Z,7.73
2019-03-16T02:20:25.948Z,9.07
2019-03-16T02:22:52.513Z,11.67
2019-03-16T02:25:18.818Z,10.07
2019-03-16T02:27:45.122Z,9.90
2019-03-16T02:30:11.917Z,7.83
2019-03-16T02:32:38.331Z,9.63
2019-03-16T02:35:05.972Z,10.73
2019-03-16T02:37:32.261Z,11.03
2019-03-16T02:39:58.541Z,12.67
2019-03-16T02:42:24.826Z,8.50
2019-03-16T02:44:51.218Z,7.40
2019-03-16T02:47:17.505Z,9.00
2019-03-16T02:49:43.815Z,5.87
2019-03-16T02:52:10.136Z,11.20
2019-03-16T02:54:36.438Z,7.17
2019-03-16T02:57:02.816Z,6.23
2019-03-16T02:59:29.103Z,7.50
2019-03-16T03:01:55.396Z,7.10
2019-03-16T03:04:21.700Z,9.37
2019-03-16T03:06:47.996Z,9.27
2019-03-16T03:09:14.624Z,5.77
2019-03-16T03:11:40.946Z,8.83
2019-03-16T03:14:07.220Z,7.27
2019-03-16T03:16:33.496Z,6.77
2019-03-16T03:18:59.787Z,6.10
2019-03-16T03:21:26.067Z,8.43
2019-03-16T03:23:52.608Z,5.20
2019-03-16T03:26:18.912Z,6.47
2019-03-16T03:28:45.199Z,9.77
2019-03-16T03:31:11.505Z,7.93
2019-03-16T03:33:57.771Z,4.77
2019-03-16T03:36:05.883Z,9.30
2019-03-16T03:38:32.163Z,5.70
2019-03-16T03:41:01.611Z,6.50
2019-03-16T03:43:26.719Z,8.07
2019-03-16T03:45:53.010Z,6.73
2019-03-16T03:48:19.301Z,8.37
2019-03-16T03:50:45.603Z,7.63
2019-03-16T03:53:11.972Z,6.40
2019-03-16T03:55:38.469Z,6.50
2019-03-16T03:58:04.770Z,10.47
2019-03-16T04:00:31.158Z,9.27
2019-03-16T04:02:57.439Z,7.53
2019-03-16T04:05:23.922Z,9.37
2019-03-16T04:07:50.157Z,12.60
2019-03-16T04:10:16.547Z,7.17
2019-03-16T04:12:42.852Z,8.87
2019-03-16T04:15:10.648Z,7.53
2019-03-16T04:17:36.923Z,7.90
2019-03-16T04:20:06.724Z,7.50
2019-03-16T04:22:33.015Z,8.50
2019-03-16T04:24:59.314Z,9.37
2019-03-16T04:27:25.620Z,7.13
2019-03-16T04:29:52.179Z,9.83
2019-03-16T04:32:18.482Z,8.63
2019-03-16T04:34:45.303Z,9.53
2019-03-16T04:37:11.685Z,7.80
2019-03-16T04:39:38.256Z,7.40
2019-03-16T04:42:04.531Z,8.07
2019-03-16T04:44:30.800Z,9.70
2019-03-16T04:46:57.361Z,6.03
2019-03-16T04:49:23.658Z,7.30
2019-03-16T04:51:49.934Z,7.93
2019-03-16T04:54:16.241Z,5.70
2019-03-16T04:56:42.536Z,9.50
2019-03-16T04:59:08.850Z,7.20
2019-03-16T05:01:35.142Z,7.20
2019-03-16T05:04:01.439Z,5.53
2019-03-16T05:06:28.011Z,5.97
2019-03-16T05:08:54.395Z,5.27
2019-03-16T05:11:20.694Z,8.53
2019-03-16T05:13:46.965Z,7.23
2019-03-16T05:16:13.275Z,6.13
2019-03-16T05:18:39.575Z,5.10
2019-03-16T05:21:05.877Z,6.23
2019-03-16T05:23:32.182Z,7.77
2019-03-16T05:25:58.769Z,5.73
2019-03-16T05:28:25.074Z,6.27
2019-03-16T05:30:51.375Z,8.60
2019-03-16T05:33:17.667Z,5.47
2019-03-16T05:35:44.821Z,8.03
2019-03-16T05:38:11.146Z,8.47
2019-03-16T05:40:37.446Z,7.63
2019-03-16T05:43:03.840Z,9.37
2019-03-16T05:45:30.143Z,9.47
2019-03-16T05:47:56.440Z,7.00
2019-03-16T05:50:22.732Z,6.53
2019-03-16T05:52:49.035Z,5.80
2019-03-16T05:55:15.567Z,6.37
2019-03-16T05:57:42.009Z,6.17
2019-03-16T06:00:13.750Z,8.53
2019-03-16T06:02:40.033Z,6.07
2019-03-16T06:05:10.820Z,6.60
2019-03-16T06:07:34.523Z,6.77
2019-03-16T06:10:00.823Z,6.67
2019-03-16T06:12:27.123Z,8.60
2019-03-16T06:14:53.402Z,8.87
2019-03-16T06:17:19.686Z,7.77
2019-03-16T06:19:45.982Z,8.60
2019-03-16T06:22:12.261Z,7.43
2019-03-16T06:24:38.541Z,7.87
2019-03-16T06:27:05.092Z,5.47
2019-03-16T06:29:31.391Z,7.73
2019-03-16T06:31:57.688Z,5.97
2019-03-16T06:34:23.999Z,7.80
2019-03-16T06:36:50.449Z,6.10
2019-03-16T06:39:16.789Z,8.37
2019-03-16T06:41:43.571Z,5.90
2019-03-16T06:44:09.935Z,7.47
2019-03-16T06:46:36.240Z,5.73
2019-03-16T06:49:02.804Z,5.90
2019-03-16T06:51:29.106Z,6.73
2019-03-16T06:53:55.411Z,5.87
2019-03-16T06:56:21.716Z,5.63
2019-03-16T06:58:48.087Z,5.30
2019-03-16T07:01:14.418Z,6.33
2019-03-16T07:03:40.682Z,7.27
2019-03-16T07:06:06.986Z,5.97
2019-03-16T07:08:33.281Z,7.87
2019-03-16T07:10:59.576Z,7.47
2019-03-16T07:13:25.877Z,6.73
2019-03-16T07:15:52.181Z,6.80
2019-03-16T07:18:18.546Z,5.87
2019-03-16T07:20:44.844Z,7.27
2019-03-16T07:23:11.131Z,6.13
2019-03-16T07:25:37.422Z,8.60
2019-03-16T07:28:03.716Z,9.50
2019-03-16T07:30:30.014Z,9.60
2019-03-16T07:32:56.315Z,6.73
2019-03-16T07:35:22.856Z,8.13
2019-03-16T07:37:49.180Z,9.57
2019-03-16T07:40:15.734Z,9.23
2019-03-16T07:42:42.037Z,7.40
2019-03-16T07:45:09.467Z,6.73
2019-03-16T07:47:36.008Z,7.67
2019-03-16T07:50:05.035Z,5.70
2019-03-16T07:52:31.581Z,8.83
2019-03-16T07:54:57.782Z,6.87
2019-03-16T07:57:24.091Z,6.53
2019-03-16T07:59:50.405Z,5.23
2019-03-16T08:02:16.736Z,8.33
2019-03-16T08:04:43.623Z,8.00
2019-03-16T08:07:09.966Z,6.87
2019-03-16T08:09:36.279Z,8.83
2019-03-16T08:12:02.673Z,8.17
2019-03-16T08:14:29.013Z,7.80
2019-03-16T08:16:55.287Z,7.77
2019-03-16T08:19:21.578Z,6.83
2019-03-16T08:21:47.884Z,6.93
2019-03-16T08:24:14.238Z,6.53
2019-03-16T08:26:40.789Z,6.73
2019-03-16T08:29:07.091Z,5.80
2019-03-16T08:31:33.375Z,6.70
2019-03-16T08:33:59.705Z,5.50
2019-03-16T08:36:26.280Z,7.07
2019-03-16T08:38:54.714Z,6.97
2019-03-16T08:41:21.005Z,4.27
2019-03-16T08:43:47.298Z,6.57
2019-03-16T08:46:13.573Z,6.30
2019-03-16T08:48:40.209Z,5.40
2019-03-16T08:51:06.492Z,9.17
2019-03-16T08:53:32.764Z,7.67
2019-03-16T08:55:59.150Z,6.53
2019-03-16T08:58:25.455Z,7.20
2019-03-16T09:00:51.988Z,6.53
2019-03-16T09:03:18.395Z,6.07
2019-03-16T09:05:44.930Z,6.60
2019-03-16T09:08:11.145Z,6.00
2019-03-16T09:10:37.439Z,4.93
2019-03-16T09:13:03.841Z,5.63
2019-03-16T09:15:30.138Z,8.17
2019-03-16T09:17:56.414Z,7.83
2019-03-16T09:20:22.731Z,6.07
2019-03-16T09:22:49.019Z,5.10
2019-03-16T09:25:15.305Z,7.50
2019-03-16T09:27:41.609Z,3.60
2019-03-16T09:30:13.226Z,5.80
2019-03-16T09:32:39.530Z,7.17
2019-03-16T09:35:05.929Z,5.43
2019-03-16T09:37:32.212Z,5.83
2019-03-16T09:39:59.525Z,6.93
2019-03-16T09:42:25.837Z,5.40
2019-03-16T09:44:52.114Z,6.70
2019-03-16T09:47:18.409Z,5.20
2019-03-16T09:49:44.732Z,5.70
2019-03-16T09:52:11.034Z,4.27
2019-03-16T09:54:37.334Z,4.03
2019-03-16T09:57:03.621Z,4.60
2019-03-16T09:59:29.916Z,5.43
2019-03-16T10:01:56.232Z,4.17
2019-03-16T10:04:22.539Z,7.27
2019-03-16T10:06:48.821Z,7.37
2019-03-16T10:09:15.124Z,3.93
2019-03-16T10:11:41.420Z,4.83
2019-03-16T10:14:07.720Z,4.57
2019-03-16T10:16:33.998Z,4.10
2019-03-16T10:19:00.289Z,7.47
2019-03-16T10:21:26.859Z,5.60
2019-03-16T10:23:53.150Z,4.10
2019-03-16T10:26:19.463Z,4.20
2019-03-16T10:28:45.739Z,5.17
2019-03-16T10:31:12.038Z,3.17
2019-03-16T10:33:38.324Z,4.17
2019-03-16T10:36:04.613Z,4.00
2019-03-16T10:38:30.899Z,5.40
2019-03-16T10:40:57.465Z,3.77
2019-03-16T10:43:23.735Z,2.90
2019-03-16T10:45:50.131Z,4.00
2019-03-16T10:48:16.418Z,2.87
2019-03-16T10:50:42.716Z,2.73
2019-03-16T10:53:09.029Z,3.73
2019-03-16T10:55:35.294Z,4.87
2019-03-16T10:58:04.495Z,6.60
2019-03-16T11:00:30.784Z,2.57
2019-03-16T11:02:57.088Z,5.93
2019-03-16T11:05:23.557Z,2.83
2019-03-16T11:07:49.874Z,4.83
2019-03-16T11:10:16.434Z,5.33
2019-03-16T11:12:42.623Z,3.53
2019-03-16T11:15:09.537Z,4.07
2019-03-16T11:17:35.857Z,3.83
2019-03-16T11:20:05.508Z,2.90
2019-03-16T11:22:31.811Z,3.73
2019-03-16T11:24:58.364Z,3.80
2019-03-16T11:27:24.672Z,8.23
2019-03-16T11:29:51.230Z,3.17
2019-03-16T11:32:17.459Z,3.03
2019-03-16T11:34:43.728Z,3.20
2019-03-16T11:37:10.026Z,3.93
2019-03-16T11:39:36.380Z,5.67
2019-03-16T11:42:02.755Z,2.93
2019-03-16T11:44:29.056Z,3.50
2019-03-16T11:46:55.362Z,3.03
2019-03-16T11:49:22.108Z,2.73
2019-03-16T11:51:48.421Z,5.53
2019-03-16T11:54:14.715Z,7.37
2019-03-16T11:56:41.006Z,4.73
2019-03-16T11:59:07.304Z,4.67
2019-03-16T12:01:33.635Z,4.03
2019-03-16T12:04:00.128Z,4.20
2019-03-16T12:06:26.442Z,3.80
2019-03-16T12:08:52.735Z,3.77
2019-03-16T12:11:19.039Z,4.80
2019-03-16T12:13:45.331Z,4.70
2019-03-16T12:16:11.666Z,3.80
2019-03-16T12:18:37.971Z,4.57
2019-03-16T12:21:04.257Z,4.03
2019-03-16T12:23:30.581Z,3.03
2019-03-16T12:25:56.877Z,3.87
2019-03-16T12:28:23.489Z,3.23
2019-03-16T12:30:49.806Z,4.60
2019-03-16T12:33:16.092Z,4.53
2019-03-16T12:35:42.411Z,4.53
2019-03-16T12:38:08.710Z,4.87
2019-03-16T12:40:35.281Z,4.03
2019-03-16T12:43:01.560Z,3.03
2019-03-16T12:45:27.850Z,2.77
2019-03-16T12:47:54.169Z,3.70
2019-03-16T12:50:21.471Z,2.50
2019-03-16T12:52:47.781Z,4.77
2019-03-16T12:55:14.066Z,3.07
2019-03-16T12:57:40.370Z,5.53
2019-03-16T13:00:10.455Z,3.63
2019-03-16T13:02:36.774Z,3.30
2019-03-16T13:05:03.702Z,2.90
2019-03-16T13:07:29.997Z,2.07
2019-03-16T13:09:56.262Z,1.80
2019-03-16T13:12:22.476Z,2.97
2019-03-16T13:14:48.757Z,2.43
2019-03-16T13:17:15.081Z,2.30
2019-03-16T13:19:41.370Z,2.70
2019-03-16T13:22:07.677Z,2.77
2019-03-16T13:24:33.968Z,3.13
2019-03-16T13:27:00.536Z,2.13
2019-03-16T13:29:26.834Z,2.47
2019-03-16T13:31:53.138Z,2.87
2019-03-16T13:34:19.545Z,2.17
2019-03-16T13:36:45.864Z,2.73
2019-03-16T13:39:12.160Z,2.10
2019-03-16T13:41:38.474Z,2.30
2019-03-16T13:44:04.775Z,3.00
2019-03-16T13:46:31.061Z,2.00
2019-03-16T13:48:57.397Z,4.07
2019-03-16T13:51:23.812Z,2.40
2019-03-16T13:53:50.121Z,3.90
2019-03-16T13:56:16.674Z,3.77
2019-03-16T13:58:43.087Z,2.93
2019-03-16T14:01:09.402Z,2.57
2019-03-16T14:03:35.696Z,4.33
2019-03-16T14:06:02.205Z,3.73
2019-03-16T14:08:28.772Z,2.87
2019-03-16T14:10:55.051Z,2.70
2019-03-16T14:13:21.935Z,2.63
2019-03-16T14:15:48.232Z,3.13
2019-03-16T14:18:14.564Z,4.43
2019-03-16T14:20:40.886Z,2.40
2019-03-16T14:23:07.284Z,2.60
2019-03-16T14:25:33.680Z,3.07
2019-03-16T14:27:59.988Z,2.53
2019-03-16T14:30:40.582Z,2.73
2019-03-16T14:32:54.382Z,3.67
2019-03-16T14:35:20.774Z,2.93
2019-03-16T14:37:47.065Z,4.57
2019-03-16T14:40:14.286Z,3.10
2019-03-16T14:42:40.713Z,2.37
2019-03-16T14:45:11.525Z,3.33
2019-03-16T14:47:37.894Z,2.60
2019-03-16T14:50:10.998Z,3.93
2019-03-16T14:52:37.280Z,3.23
2019-03-16T14:55:04.855Z,2.40
2019-03-16T14:57:31.155Z,3.40
2019-03-16T14:59:59.487Z,3.73
2019-03-16T15:02:25.536Z,3.57
2019-03-16T15:04:51.849Z,2.60
2019-03-16T15:07:18.421Z,2.47
2019-03-16T15:09:44.723Z,3.30
2019-03-16T15:12:11.025Z,3.13
2019-03-16T15:14:37.347Z,2.40
2019-03-16T15:17:03.626Z,2.93
2019-03-16T15:19:29.922Z,3.00
2019-03-16T15:21:56.223Z,4.97
2019-03-16T15:24:22.519Z,4.90
2019-03-16T15:26:48.817Z,3.30
2019-03-16T15:29:15.136Z,2.60
2019-03-16T15:31:41.430Z,3.67
2019-03-16T15:34:07.734Z,2.93
2019-03-16T15:36:34.023Z,3.60
2019-03-16T15:39:00.693Z,3.10
2019-03-16T15:41:27.276Z,4.27
2019-03-16T15:43:53.587Z,3.00
2019-03-16T15:46:20.140Z,3.23
2019-03-16T15:48:46.440Z,4.60
2019-03-16T15:51:12.751Z,5.40
2019-03-16T15:53:39.287Z,4.90
2019-03-16T15:56:05.595Z,6.07
2019-03-16T15:58:31.966Z,3.07
2019-03-16T16:01:03.668Z,3.13
2019-03-16T16:03:26.434Z,3.23
2019-03-16T16:05:52.742Z,3.47
2019-03-16T16:08:19.499Z,3.10
2019-03-16T16:10:45.831Z,4.63
2019-03-16T16:13:12.153Z,3.17
2019-03-16T16:15:38.440Z,3.87
2019-03-16T16:18:04.844Z,4.50
2019-03-16T16:20:31.136Z,3.47
2019-03-16T16:22:57.421Z,3.17
2019-03-16T16:25:23.708Z,3.10
2019-03-16T16:27:50.045Z,4.30
2019-03-16T16:30:20.366Z,3.53
2019-03-16T16:32:46.573Z,5.73
2019-03-16T16:35:13.879Z,2.70
2019-03-16T16:37:40.187Z,3.83
2019-03-16T16:40:09.378Z,3.00
2019-03-16T16:42:35.680Z,4.03
2019-03-16T16:45:02.508Z,5.13
2019-03-16T16:47:28.790Z,2.87
2019-03-16T16:49:55.093Z,2.73
2019-03-16T16:52:21.709Z,3.73
2019-03-16T16:54:48.266Z,2.83
2019-03-16T16:57:14.682Z,3.53
2019-03-16T16:59:41.065Z,4.87
2019-03-16T17:02:07.279Z,4.27
2019-03-16T17:04:33.575Z,4.63
2019-03-16T17:06:59.888Z,3.20
2019-03-16T17:09:26.586Z,4.40
2019-03-16T17:11:52.780Z,5.53
2019-03-16T17:14:19.076Z,5.57
2019-03-16T17:16:45.381Z,2.80
2019-03-16T17:19:11.698Z,6.23
2019-03-16T17:21:37.978Z,4.13
2019-03-16T17:24:04.266Z,5.73
2019-03-16T17:26:30.651Z,3.37
2019-03-16T17:28:56.940Z,4.93
2019-03-16T17:31:23.237Z,5.27
2019-03-16T17:33:49.522Z,5.50
2019-03-16T17:36:15.878Z,3.33
2019-03-16T17:38:42.129Z,4.23
2019-03-16T17:41:08.405Z,5.27
2019-03-16T17:43:34.711Z,3.93
2019-03-16T17:46:01.006Z,3.70
2019-03-16T17:48:29.694Z,3.37
2019-03-16T17:50:55.745Z,3.97
2019-03-16T17:53:22.038Z,4.77
2019-03-16T17:55:48.330Z,2.57
2019-03-16T17:58:14.639Z,4.03
2019-03-16T18:00:41.171Z,3.47
2019-03-16T18:03:07.578Z,4.80
2019-03-16T18:05:33.858Z,3.47
2019-03-16T18:08:00.164Z,3.53
2019-03-16T18:10:26.715Z,3.60
2019-03-16T18:12:52.919Z,3.40
2019-03-16T18:15:19.743Z,2.70
2019-03-16T18:17:46.026Z,3.07
2019-03-16T18:20:17.063Z,4.50
2019-03-16T18:22:42.410Z,4.97
2019-03-16T18:25:10.412Z,3.10
2019-03-16T18:27:36.684Z,3.73
2019-03-16T18:30:06.294Z,3.67
2019-03-16T18:32:32.617Z,5.00
2019-03-16T18:34:58.907Z,6.70
2019-03-16T18:37:25.211Z,3.83
2019-03-16T18:39:51.506Z,4.23
2019-03-16T18:42:17.812Z,6.57
2019-03-16T18:44:44.119Z,4.77
2019-03-16T18:47:10.433Z,3.87
2019-03-16T18:49:36.704Z,4.53
2019-03-16T18:52:03.123Z,5.53
2019-03-16T18:54:29.445Z,3.37
2019-03-16T18:56:55.725Z,4.13
2019-03-16T18:59:22.028Z,4.33
2019-03-16T19:01:48.348Z,4.70
2019-03-16T19:04:14.648Z,4.43
2019-03-16T19:06:40.959Z,3.70
2019-03-16T19:09:07.753Z,4.60
2019-03-16T19:11:34.046Z,4.00
2019-03-16T19:14:00.343Z,5.20
2019-03-16T19:16:26.667Z,5.10
2019-03-16T19:18:52.962Z,4.50
2019-03-16T19:21:19.494Z,4.10
2019-03-16T19:23:45.822Z,5.40
2019-03-16T19:26:12.123Z,4.43
2019-03-16T19:28:38.412Z,5.50
2019-03-16T19:31:04.725Z,5.23
2019-03-16T19:33:31.023Z,5.07
2019-03-16T19:35:57.333Z,5.20
2019-03-16T19:38:23.639Z,5.07
2019-03-16T19:40:49.937Z,6.90
2019-03-16T19:43:16.266Z,5.03
2019-03-16T19:45:42.541Z,6.13
2019-03-16T19:48:08.943Z,5.57
2019-03-16T19:50:35.225Z,7.13
2019-03-16T19:53:01.531Z,8.00
2019-03-16T19:55:27.830Z,8.40
2019-03-16T19:57:54.367Z,8.33
2019-03-16T20:00:20.972Z,8.60
2019-03-16T20:02:50.958Z,6.70
2019-03-16T20:05:15.320Z,12.40
2019-03-16T20:07:41.624Z,7.47
2019-03-16T20:10:11.110Z,7.80
2019-03-16T20:12:37.686Z,7.27
2019-03-16T20:15:06.607Z,10.33
2019-03-16T20:17:32.897Z,9.70
2019-03-16T20:19:59.444Z,7.10
2019-03-16T20:22:25.762Z,7.83
2019-03-16T20:24:52.038Z,6.00
2019-03-16T20:27:18.239Z,7.87
2019-03-16T20:29:44.820Z,7.23
2019-03-16T20:32:11.121Z,9.20
2019-03-16T20:34:37.429Z,6.87
2019-03-16T20:37:03.776Z,7.23
2019-03-16T20:39:30.029Z,7.97
2019-03-16T20:41:56.370Z,8.60
2019-03-16T20:44:22.727Z,6.57
2019-03-16T20:46:49.219Z,6.20
2019-03-16T20:49:15.551Z,7.23
2019-03-16T20:51:41.876Z,9.53
2019-03-16T20:54:08.268Z,6.73
2019-03-16T20:56:34.600Z,6.97
2019-03-16T20:59:00.879Z,11.07
2019-03-16T21:01:27.262Z,9.20
2019-03-16T21:03:53.715Z,8.63
2019-03-16T21:06:19.997Z,7.07
2019-03-16T21:08:46.313Z,8.23
2019-03-16T21:11:12.703Z,6.13
2019-03-16T21:13:39.011Z,8.03
2019-03-16T21:16:05.316Z,7.53
2019-03-16T21:18:31.861Z,7.63
2019-03-16T21:20:58.157Z,7.67
2019-03-16T21:23:24.473Z,7.47
2019-03-16T21:25:50.863Z,7.10
2019-03-16T21:28:17.139Z,6.67
2019-03-16T21:30:43.696Z,6.33
2019-03-16T21:33:09.985Z,6.27
2019-03-16T21:35:36.244Z,9.07
2019-03-16T21:38:02.813Z,8.23
2019-03-16T21:40:29.151Z,10.20
2019-03-16T21:42:55.436Z,6.23
2019-03-16T21:45:21.737Z,7.27
2019-03-16T21:47:59.549Z,6.27
2019-03-16T21:50:16.192Z,9.13
2019-03-16T21:52:44.598Z,10.33
2019-03-16T21:55:11.594Z,10.63
2019-03-16T21:57:37.906Z,7.83
2019-03-16T22:00:07.782Z,8.33
2019-03-16T22:02:34.078Z,5.87
2019-03-16T22:05:00.380Z,8.20
2019-03-16T22:07:26.684Z,7.50
2019-03-16T22:09:52.985Z,6.93
2019-03-16T22:12:19.256Z,6.13
2019-03-16T22:14:45.600Z,8.60
2019-03-16T22:17:11.960Z,7.43
2019-03-16T22:19:38.269Z,8.90
2019-03-16T22:22:04.577Z,7.63
2019-03-16T22:24:30.861Z,9.53
2019-03-16T22:26:57.241Z,8.60
2019-03-16T22:29:23.459Z,5.87
2019-03-16T22:31:49.793Z,8.63
2019-03-16T22:34:16.104Z,6.10
2019-03-16T22:36:42.386Z,6.70
2019-03-16T22:39:08.958Z,6.13
2019-03-16T22:41:35.323Z,7.07
2019-03-16T22:44:01.542Z,9.03
2019-03-16T22:46:27.911Z,8.53
2019-03-16T22:48:54.204Z,7.70
2019-03-16T22:51:20.503Z,8.60
2019-03-16T22:53:46.819Z,7.70
2019-03-16T22:56:13.175Z,8.37
2019-03-16T22:58:39.472Z,7.67
2019-03-16T23:01:06.045Z,6.10
2019-03-16T23:03:32.343Z,5.30
2019-03-16T23:05:58.660Z,6.37
2019-03-16T23:08:25.316Z,5.83
2019-03-16T23:10:51.715Z,7.60
2019-03-16T23:13:18.003Z,7.87
2019-03-16T23:15:44.382Z,6.40
2019-03-16T23:18:10.689Z,6.67
2019-03-16T23:20:36.964Z,5.73
2019-03-16T23:23:03.250Z,6.03
2019-03-16T23:25:29.575Z,5.77
2019-03-16T23:27:55.876Z,7.27
2019-03-16T23:30:22.172Z,5.83
2019-03-16T23:32:48.597Z,6.73
2019-03-16T23:35:14.881Z,7.60
2019-03-16T23:37:41.418Z,4.87
2019-03-16T23:40:09.703Z,6.57
2019-03-16T23:42:35.992Z,5.97
2019-03-16T23:45:04.487Z,7.37
2019-03-16T23:47:31.131Z,6.20
2019-03-16T23:49:57.429Z,4.97
2019-03-16T23:52:23.752Z,4.57
2019-03-16T23:54:50.048Z,5.50
2019-03-16T23:57:16.338Z,4.90
2019-03-16T23:59:42.762Z,5.00
